Mojave, CA

2:24 AM PDT on May 29, 2017 (GMT -0700)
Mojave

Weather History for KMHV - March, 2013

Change the Weather History Date:

Saturday, March 16, 2013

  Actual Average Record
Temperature  
Mean Temperature 66 °F -  
Max Temperature 75 °F 65 °F 89 °F (2007)
Min Temperature 57 °F 39 °F 28 °F (1991)
Cooling Degree Days 1    
Growing Degree Days 16 (Base 50)    
Moisture  
Dew Point 39 °F    
Average Humidity 42    
Maximum Humidity 63    
Minimum Humidity 21    
Precipitation  
Precipitation 0.00 in - - ()
Sea Level Pressure  
Sea Level Pressure 29.95 in    
Wind  
Wind Speed 29 mph (West)    
Max Wind Speed 39 mph    
Max Gust Speed 48 mph    
Visibility 10 miles    
Events      
Averages and records for this station are not official NWS values.
T = Trace of Precipitation, MM = Missing Value Source: NWS Daily Summary

Daily Weather History Graph

Daily Weather History Graph

Search for Another Location

Airport or City:

Trip Planner

Search our weather history database for the weather conditions in past years. The results will help you decide how hot, cold, wet, or windy it might be!

Date:

Astronomy

Mar. 16, 2013 Rise Set
Actual Time 7:01 AM PDT 7:01 PM PDT
Civil Twilight 6:36 AM PDT 7:26 PM PDT
Nautical Twilight 6:06 AM PDT 7:56 PM PDT
Astronomical Twilight 5:37 AM PDT 8:25 PM PDT
Moon 9:45 AM PDT (3/16) No Moon Set
Length of Visible Light 12h 50m
Length of Day
11h 59m
Waxing Crescent, 24% of the Moon is Illuminated
Mar 16
Waxing Crescent
Mar 19
First Quarter
Mar 27
Full
Apr 2
Last Quarter
Apr 10
New

Hourly Weather History & Observations

Time (PDT) Temp. Dew Point Humidity Pressure Visibility Wind Dir Wind Speed Gust Speed Precip Events Conditions
12:15 AM 62.6 °F 39.2 °F 42% 29.93 in 10.0 mi West 34.5 mph 40.3 mph N/A   Clear
12:35 AM 62.6 °F 39.2 °F 42% 29.91 in 10.0 mi West 39.1 mph 48.3 mph N/A   Clear
12:55 AM 62.6 °F 39.2 °F 42% 29.93 in 10.0 mi West 35.7 mph 47.2 mph N/A   Clear
1:15 AM 62.6 °F 41.0 °F 45% 29.93 in 10.0 mi West 36.8 mph 43.7 mph N/A   Clear
1:35 AM 60.8 °F 41.0 °F 48% 29.93 in 10.0 mi West 33.4 mph 41.4 mph N/A   Clear
1:55 AM 62.6 °F 42.8 °F 48% 29.95 in 10.0 mi West 38.0 mph 46.0 mph N/A   Clear
2:15 AM 60.8 °F 44.6 °F 55% 29.95 in 10.0 mi West 35.7 mph 40.3 mph N/A   Clear
2:35 AM 60.8 °F 44.6 °F 55% 29.96 in 10.0 mi West 35.7 mph 43.7 mph N/A   Clear
2:55 AM 60.8 °F 44.6 °F 55% 29.96 in 10.0 mi West 34.5 mph 41.4 mph N/A   Clear
3:35 AM 60.8 °F 44.6 °F 55% 29.96 in 10.0 mi West 29.9 mph 34.5 mph N/A   Clear
3:55 AM 59.0 °F 44.6 °F 59% 29.96 in 10.0 mi West 27.6 mph - N/A   Clear
4:15 AM 59.0 °F 44.6 °F 59% 29.96 in 10.0 mi West 24.2 mph 31.1 mph N/A   Clear
4:35 AM 59.0 °F 42.8 °F 55% 29.94 in 10.0 mi West 28.8 mph 32.2 mph N/A   Clear
4:55 AM 59.0 °F 42.8 °F 55% 29.94 in 10.0 mi West 29.9 mph - N/A   Clear
5:15 AM 57.2 °F 44.6 °F 63% 29.96 in 10.0 mi WSW 18.4 mph - N/A   Clear
5:35 AM 57.2 °F 41.0 °F 55% 29.93 in 10.0 mi WNW 27.6 mph - N/A   Clear
5:55 AM 57.2 °F 44.6 °F 63% 29.93 in 10.0 mi WNW 28.8 mph 33.4 mph N/A   Clear
6:15 AM 59.0 °F 41.0 °F 51% 29.93 in 10.0 mi WNW 32.2 mph 41.4 mph N/A   Clear
6:35 AM 57.2 °F 41.0 °F 55% 29.93 in 10.0 mi WNW 34.5 mph 39.1 mph N/A   Clear
6:55 AM 57.2 °F 41.0 °F 55% 29.94 in 10.0 mi West 29.9 mph 35.7 mph N/A   Clear
7:15 AM 57.2 °F 41.0 °F 55% 29.93 in 9.0 mi WNW 34.5 mph 38.0 mph N/A   Clear
7:35 AM 59.0 °F 37.4 °F 45% 29.94 in 10.0 mi West 31.1 mph 38.0 mph N/A   Clear
7:55 AM 59.0 °F 37.4 °F 45% 29.94 in 10.0 mi West 27.6 mph 33.4 mph N/A   Clear
8:15 AM 60.8 °F 37.4 °F 42% 29.95 in 10.0 mi West 28.8 mph 34.5 mph N/A   Clear
8:35 AM 62.6 °F 37.4 °F 39% 29.96 in 10.0 mi West 25.3 mph 35.7 mph N/A   Clear
8:55 AM 62.6 °F 37.4 °F 39% 29.96 in 10.0 mi West 25.3 mph 33.4 mph N/A   Clear
9:15 AM 62.6 °F 37.4 °F 39% 29.96 in 10.0 mi WNW 28.8 mph 36.8 mph N/A   Clear
9:35 AM 64.4 °F 35.6 °F 34% 29.96 in 10.0 mi WNW 26.5 mph 36.8 mph N/A   Clear
9:55 AM 66.2 °F 37.4 °F 35% 29.98 in 10.0 mi WNW 23.0 mph 29.9 mph N/A   Clear
10:15 AM 66.2 °F 37.4 °F 35% 29.98 in 10.0 mi WNW 26.5 mph 33.4 mph N/A   Clear
10:35 AM 68.0 °F 35.6 °F 30% 29.98 in 10.0 mi WNW 24.2 mph 35.7 mph N/A   Clear
10:55 AM 71.6 °F 33.8 °F 25% 29.98 in 10.0 mi WNW 19.6 mph 24.2 mph N/A   Clear
11:15 AM 71.6 °F 33.8 °F 25% 29.98 in 10.0 mi WNW 18.4 mph 26.5 mph N/A   Clear
11:35 AM 73.4 °F 32.0 °F 22% 29.98 in 10.0 mi West 18.4 mph 21.9 mph N/A   Clear
11:55 AM 75.2 °F 32.0 °F 21% 29.98 in 10.0 mi WNW 21.9 mph 27.6 mph N/A   Clear
12:15 PM 73.4 °F 35.6 °F 25% 29.97 in 10.0 mi WNW 21.9 mph 29.9 mph N/A   Clear
12:35 PM 73.4 °F 37.4 °F 27% 29.97 in 10.0 mi WNW 26.5 mph 34.5 mph N/A   Clear
12:55 PM 73.4 °F 37.4 °F 27% 29.96 in 10.0 mi WNW 26.5 mph 34.5 mph N/A   Clear
1:15 PM 75.2 °F 37.4 °F 25% 29.95 in 10.0 mi WNW 31.1 mph 36.8 mph N/A   Clear
1:35 PM 73.4 °F 37.4 °F 27% 29.94 in 10.0 mi WNW 29.9 mph 36.8 mph N/A   Clear
1:55 PM 73.4 °F 39.2 °F 29% 29.93 in 10.0 mi WNW 32.2 mph 41.4 mph N/A   Clear
2:15 PM 73.4 °F 37.4 °F 27% 29.91 in 10.0 mi WNW 27.6 mph 38.0 mph N/A   Clear
2:35 PM 75.2 °F 35.6 °F 24% 29.91 in 10.0 mi WNW 26.5 mph 34.5 mph N/A   Clear
2:55 PM 73.4 °F 39.2 °F 29% 29.90 in 10.0 mi West 31.1 mph 38.0 mph N/A   Clear
3:15 PM 73.4 °F 35.6 °F 25% 29.90 in 10.0 mi WNW 23.0 mph 39.1 mph N/A   Clear
3:35 PM 73.4 °F 39.2 °F 29% 29.90 in 10.0 mi West 33.4 mph 42.6 mph N/A   Clear
3:55 PM 71.6 °F 39.2 °F 31% 29.89 in 10.0 mi WNW 36.8 mph 47.2 mph N/A   Clear
4:15 PM 71.6 °F 37.4 °F 29% 29.90 in 10.0 mi WNW 26.5 mph 43.7 mph N/A   Clear
4:35 PM 71.6 °F 37.4 °F 29% 29.88 in 10.0 mi WNW 39.1 mph 47.2 mph N/A   Clear
4:55 PM 69.8 °F 37.4 °F 31% 29.89 in 10.0 mi WNW 33.4 mph 46.0 mph N/A   Clear
5:15 PM 69.8 °F 37.4 °F 31% 29.89 in 10.0 mi WNW 29.9 mph 40.3 mph N/A   Clear
5:35 PM 68.0 °F 37.4 °F 33% 29.89 in 10.0 mi WNW 27.6 mph 38.0 mph N/A   Clear
5:55 PM 66.2 °F 37.4 °F 35% 29.90 in 10.0 mi West 24.2 mph 34.5 mph N/A   Clear
6:15 PM 66.2 °F 35.6 °F 32% 29.90 in 10.0 mi West 24.2 mph 31.1 mph N/A   Clear
6:35 PM 64.4 °F 35.6 °F 34% 29.94 in 10.0 mi WSW 17.3 mph 25.3 mph N/A   Clear
6:55 PM 62.6 °F 39.2 °F 42% 29.97 in 10.0 mi South 17.3 mph 21.9 mph N/A   Clear
7:15 PM 62.6 °F 39.2 °F 42% 29.99 in 10.0 mi SSE 6.9 mph 23.0 mph N/A   Clear
7:35 PM 62.6 °F 41.0 °F 45% 29.98 in 10.0 mi NNE 15.0 mph 25.3 mph N/A   Clear
7:55 PM 60.8 °F 41.0 °F 48% 29.99 in 10.0 mi NNE 5.8 mph 24.2 mph N/A   Clear
8:15 PM 59.0 °F 42.8 °F 55% 29.99 in 10.0 mi SSW 15.0 mph 23.0 mph N/A   Clear
8:35 PM 59.0 °F 42.8 °F 55% 30.00 in 10.0 mi WSW 5.8 mph 19.6 mph N/A   Partly Cloudy
8:55 PM 59.0 °F 42.8 °F 55% 29.99 in 10.0 mi SSE 9.2 mph 18.4 mph N/A   Partly Cloudy
9:15 PM 59.0 °F 42.8 °F 55% 29.99 in 10.0 mi SE 5.8 mph - N/A   Clear
9:35 PM 59.0 °F 41.0 °F 51% 29.99 in 10.0 mi South 10.4 mph 23.0 mph N/A   Clear
9:55 PM 59.0 °F 39.2 °F 48% 29.99 in 10.0 mi South 9.2 mph - N/A   Clear
10:35 PM 59.0 °F 41.0 °F 51% 29.98 in 10.0 mi South 10.4 mph - N/A   Scattered Clouds
10:55 PM 59.0 °F 42.8 °F 55% 29.98 in 10.0 mi SSE 12.7 mph 16.1 mph N/A   Partly Cloudy
11:15 PM 59.0 °F 42.8 °F 55% 29.97 in 10.0 mi South 15.0 mph 23.0 mph N/A   Clear
11:35 PM 59.0 °F 42.8 °F 55% 29.97 in 10.0 mi SSW 13.8 mph 23.0 mph N/A   Clear
11:55 PM 59.0 °F 41.0 °F 51% 29.97 in 10.0 mi SW 16.1 mph 23.0 mph N/A   Clear